Time;durP1;ratioP1;P1;durP2;ratioP2;P2;SDS_P1;SDS_P2;PMS_P1;PMS_P2;Temp;Humidity;BMP_temperature;BMP_pressure;BME280_temperature;BME280_humidity;BME280_pressure;Samples;Min_cycle;Max_cycle;Signal;HPM_P1;HPM_P2
2022/09/03 00:01:43;;;;;;;;;30.80;30.00;;;;;21.53;34.30;98995.34;6259959;27;97106;-57
2022/09/03 00:04:56;;;;;;;;;40.40;35.80;;;;;21.50;34.33;98998.69;6265985;27;96773;-58
2022/09/03 00:08:07;;;;;;;;;46.40;40.00;;;;;21.50;34.79;98993.19;6266629;27;96836;-55
2022/09/03 00:11:17;;;;;;;;;42.50;37.17;;;;;21.51;34.62;99001.13;6261748;27;97393;-58
2022/09/03 00:14:24;;;;;;;;;42.20;36.20;;;;;21.49;34.56;98997.84;6265576;27;98353;-55
2022/09/03 00:17:35;;;;;;;;;35.40;33.00;;;;;21.49;34.46;98994.28;6265885;27;97432;-58
2022/09/03 00:20:42;;;;;;;;;44.80;39.00;;;;;21.48;34.75;99001.69;6259630;27;96721;-57
2022/09/03 00:23:48;;;;;;;;;36.20;33.60;;;;;21.43;34.19;98996.25;6264382;27;97121;-56
2022/09/03 00:26:55;;;;;;;;;43.20;37.80;;;;;21.38;34.18;98988.09;6263351;27;97313;-58
2022/09/03 00:30:03;;;;;;;;;44.20;38.00;;;;;21.33;34.04;98981.84;6239654;27;98639;-58
2022/09/03 00:33:13;;;;;;;;;34.60;32.60;;;;;21.27;34.49;98989.28;6263300;27;97080;-55
2022/09/03 00:36:19;;;;;;;;;35.20;33.00;;;;;21.26;34.49;98989.59;6249119;27;96676;-55
2022/09/03 00:39:25;;;;;;;;;34.60;31.80;;;;;21.24;34.61;98984.38;6264056;27;97906;-58
2022/09/03 00:42:46;;;;;;;;;39.60;35.40;;;;;21.21;34.90;98981.41;6256774;27;97469;-54
2022/09/03 00:46:04;;;;;;;;;37.40;34.40;;;;;21.18;34.57;98986.34;6265316;27;96580;-55
2022/09/03 00:49:24;;;;;;;;;33.67;31.67;;;;;21.12;34.50;98989.38;6264867;27;97010;-57
2022/09/03 00:52:44;;;;;;;;;44.60;38.20;;;;;21.08;35.04;98980.13;6265025;27;97430;-58
2022/09/03 00:55:58;;;;;;;;;41.25;36.50;;;;;21.04;34.68;98979.06;6264230;27;96499;-57
2022/09/03 00:59:21;;;;;;;;;30.40;29.00;;;;;21.02;35.21;98989.47;6264175;27;96340;-55
2022/09/03 01:02:34;;;;;;;;;38.00;34.60;;;;;20.85;35.13;98964.44;6255026;27;96925;-57
2022/09/03 01:06:04;;;;;;;;;25.00;24.60;;;;;20.98;35.39;98978.28;6259174;27;97525;-58
2022/09/03 01:09:19;;;;;;;;;45.20;39.00;;;;;20.97;35.29;98975.81;6265196;27;97064;-58
2022/09/03 01:12:34;;;;;;;;;38.60;35.00;;;;;20.92;35.28;98975.84;6262800;27;96494;-55
2022/09/03 01:15:53;;;;;;;;;37.00;34.00;;;;;20.89;35.63;98984.66;6264819;27;96619;-58
2022/09/03 01:19:10;;;;;;;;;46.20;39.80;;;;;20.87;35.44;98978.63;6260823;27;97137;-55
2022/09/03 01:22:37;;;;;;;;;37.80;34.00;;;;;20.83;35.40;98980.31;6252739;27;97427;-58
2022/09/03 01:25:53;;;;;;;;;30.00;29.00;;;;;20.84;36.46;98987.44;6264602;27;97671;-58
2022/09/03 01:29:11;;;;;;;;;39.20;35.00;;;;;20.82;35.91;98986.94;6262395;27;96646;-57
2022/09/03 01:32:22;;;;;;;;;48.00;41.00;;;;;20.79;35.96;98980.09;6253013;27;97247;-57
2022/09/03 01:35:35;;;;;;;;;38.00;34.80;;;;;20.73;35.84;98976.56;6264078;27;97014;-56
2022/09/03 01:38:47;;;;;;;;;55.00;46.00;;;;;20.73;35.51;98975.75;6264225;27;96675;-54
2022/09/03 01:42:16;;;;;;;;;48.17;41.00;;;;;20.71;35.14;98978.78;6243638;27;97553;-57
2022/09/03 01:45:50;;;;;;;;;44.00;38.00;;;;;20.67;35.45;98982.38;6238111;27;97008;-57
2022/09/03 01:49:05;;;;;;;;;41.60;36.00;;;;;20.66;35.67;98975.25;6237857;27;97493;-58
2022/09/03 01:52:14;;;;;;;;;41.75;36.75;;;;;20.45;35.56;98949.94;6258588;27;96459;-57
2022/09/03 01:55:30;;;;;;;;;40.60;35.60;;;;;20.61;35.34;98978.84;6260330;27;96831;-55
2022/09/03 01:58:38;;;;;;;;;33.60;32.00;;;;;20.62;35.57;98985.16;6238817;27;97458;-56
2022/09/03 02:01:49;;;;;;;;;38.50;34.50;;;;;20.60;35.71;98974.47;6252569;27;96635;-55
2022/09/03 02:04:59;;;;;;;;;41.00;36.00;;;;;20.60;35.88;98984.59;6243870;27;97440;-55
2022/09/03 02:08:05;;;;;;;;;31.20;29.80;;;;;20.60;35.81;98995.56;6260003;27;97568;-57
2022/09/03 02:11:10;;;;;;;;;42.60;37.60;;;;;20.61;36.10;98987.06;6242098;27;97259;-55
2022/09/03 02:14:13;;;;;;;;;45.50;39.00;;;;;20.58;36.19;98978.59;6239592;27;97477;-56
2022/09/03 02:17:18;;;;;;;;;34.25;32.50;;;;;20.59;36.29;98978.31;6248679;27;97357;-57
2022/09/03 02:20:25;;;;;;;;;43.00;37.67;;;;;20.60;36.38;98979.13;6257752;27;97067;-57
2022/09/03 02:23:29;;;;;;;;;38.60;34.20;;;;;20.51;36.23;98981.66;6262776;27;97018;-55
2022/09/03 02:26:33;;;;;;;;;35.40;33.20;;;;;20.62;36.25;98991.44;6248012;27;97042;-57
2022/09/03 02:29:36;;;;;;;;;40.20;35.20;;;;;20.58;36.18;98993.09;6238986;27;97089;-58
2022/09/03 02:32:41;;;;;;;;;38.80;35.00;;;;;20.57;35.96;98991.50;6252827;27;97115;-54
2022/09/03 02:35:45;;;;;;;;;45.40;39.20;;;;;20.58;36.21;98990.38;6249442;27;97459;-56
2022/09/03 02:38:49;;;;;;;;;45.40;38.60;;;;;20.56;36.33;98991.75;6261600;27;98067;-55
2022/09/03 02:41:55;;;;;;;;;41.60;37.00;;;;;20.53;36.39;98984.91;6253515;27;97060;-55
2022/09/03 02:45:20;;;;;;;;;35.60;33.20;;;;;20.50;36.14;98990.97;6238575;27;97492;-57
2022/09/03 02:48:25;;;;;;;;;42.75;36.75;;;;;20.46;36.04;98980.88;6236131;28;98168;-58
2022/09/03 02:51:33;;;;;;;;;41.25;36.50;;;;;20.46;36.21;98991.81;6242377;27;96777;-55
2022/09/03 02:54:38;;;;;;;;;39.75;35.00;;;;;20.37;36.44;98985.31;6237169;27;97827;-55
2022/09/03 02:57:42;;;;;;;;;41.25;36.25;;;;;20.43;35.99;99000.63;6235741;27;97317;-55
2022/09/03 03:00:48;;;;;;;;;42.40;36.80;;;;;20.40;36.18;99002.00;6245406;27;96541;-55
2022/09/03 03:03:53;;;;;;;;;37.80;34.60;;;;;20.40;36.32;98998.44;6236380;27;97044;-58
2022/09/03 03:06:56;;;;;;;;;28.60;27.60;;;;;20.36;36.50;98998.19;6253875;27;96441;-55
2022/09/03 03:09:59;;;;;;;;;40.80;35.20;;;;;20.35;36.38;98999.28;6261173;27;97505;-57
2022/09/03 03:13:03;;;;;;;;;33.20;32.00;;;;;20.33;36.45;99006.16;6256294;27;98267;-57
2022/09/03 03:16:07;;;;;;;;;40.67;36.17;;;;;20.30;36.24;99005.59;6244961;27;97413;-56
2022/09/03 03:19:11;;;;;;;;;39.40;35.20;;;;;20.26;36.57;99001.78;6246689;27;97476;-55
2022/09/03 03:22:15;;;;;;;;;43.40;37.60;;;;;20.24;36.46;99001.22;6261266;27;96579;-57
2022/09/03 03:25:18;;;;;;;;;41.50;36.67;;;;;20.23;36.80;98999.56;6261469;27;98088;-58
2022/09/03 03:28:22;;;;;;;;;44.20;37.40;;;;;20.21;36.90;98999.06;6261507;27;96405;-57
2022/09/03 03:31:26;;;;;;;;;38.20;34.20;;;;;20.19;36.87;98992.22;6252596;27;97491;-58
2022/09/03 03:34:31;;;;;;;;;42.00;37.00;;;;;20.17;37.00;98994.44;6255380;27;96390;-57
2022/09/03 03:37:35;;;;;;;;;36.00;33.00;;;;;20.14;36.79;99000.44;6259890;27;97593;-55
2022/09/03 03:40:41;;;;;;;;;41.00;35.25;;;;;20.11;36.60;99001.03;6255425;27;96990;-57
2022/09/03 03:43:45;;;;;;;;;42.00;37.00;;;;;20.09;36.77;98998.56;6260060;27;97438;-56
2022/09/03 03:46:48;;;;;;;;;44.60;38.60;;;;;20.08;36.93;98999.69;6259319;27;97391;-55
2022/09/03 03:49:53;;;;;;;;;46.00;39.60;;;;;20.07;37.17;98989.81;6252155;27;96468;-57
2022/09/03 03:53:00;;;;;;;;;41.60;36.20;;;;;20.06;37.11;98988.19;6258992;27;97439;-55
2022/09/03 03:56:06;;;;;;;;;38.40;34.20;;;;;20.06;37.24;98995.56;6259055;27;97446;-57
2022/09/03 03:59:09;;;;;;;;;32.50;31.17;;;;;20.04;37.15;99005.97;6258021;27;97481;-55
2022/09/03 04:02:15;;;;;;;;;46.17;39.67;;;;;20.02;37.42;99008.19;6259284;27;96955;-57
2022/09/03 04:05:20;;;;;;;;;48.80;41.80;;;;;20.02;37.33;99014.47;6244958;27;96547;-55
2022/09/03 04:08:26;;;;;;;;;43.50;38.00;;;;;20.02;37.46;99009.00;6258938;27;97219;-55
2022/09/03 04:11:29;;;;;;;;;41.00;36.50;;;;;20.00;37.46;99000.25;6242393;27;96619;-57
2022/09/03 04:14:33;;;;;;;;;48.00;41.25;;;;;19.93;37.80;98998.91;6262813;27;96821;-55
2022/09/03 04:17:36;;;;;;;;;46.67;39.83;;;;;19.93;37.94;99004.38;6258439;27;97169;-57
2022/09/03 04:20:41;;;;;;;;;44.20;38.60;;;;;19.93;38.21;98997.00;6241238;27;96863;-55
2022/09/03 04:23:47;;;;;;;;;41.00;36.00;;;;;19.96;38.17;98995.59;6238793;27;97517;-54
2022/09/03 04:26:52;;;;;;;;;53.67;45.33;;;;;19.93;38.01;98990.72;6239116;27;97343;-57
2022/09/03 04:29:56;;;;;;;;;54.67;45.50;;;;;19.92;38.55;99000.81;6240858;27;98006;-60
2022/09/03 04:33:00;;;;;;;;;50.40;42.60;;;;;19.93;38.55;98986.06;6239095;27;97008;-58
2022/09/03 04:36:07;;;;;;;;;44.60;37.80;;;;;19.92;38.64;98994.53;6239214;27;97386;-55
2022/09/03 04:39:11;;;;;;;;;42.00;36.67;;;;;19.94;38.45;98992.34;6242025;27;97841;-57
2022/09/03 04:42:14;;;;;;;;;44.40;38.40;;;;;19.98;38.59;98998.91;6239636;27;98037;-57
2022/09/03 04:45:18;;;;;;;;;38.00;35.00;;;;;20.01;38.63;99001.06;6247443;27;96661;-57
2022/09/03 04:48:21;;;;;;;;;42.60;37.60;;;;;20.06;38.75;99009.25;6238673;27;97022;-56
2022/09/03 04:51:28;;;;;;;;;52.40;44.00;;;;;19.95;38.56;99003.00;6242748;27;96992;-54
2022/09/03 04:54:33;;;;;;;;;40.60;36.00;;;;;20.06;38.60;99014.72;6239507;27;96965;-55
2022/09/03 04:57:36;;;;;;;;;56.17;47.33;;;;;20.07;38.51;99016.38;6238153;27;96808;-55
2022/09/03 05:00:40;;;;;;;;;38.00;34.00;;;;;20.08;39.00;99016.09;6243373;27;96879;-55
2022/09/03 05:03:44;;;;;;;;;44.80;38.40;;;;;20.17;39.02;99008.94;6238341;27;97428;-61
2022/09/03 05:06:48;;;;;;;;;49.00;41.80;;;;;20.14;38.60;99004.00;6254341;27;96753;-55
2022/09/03 05:09:52;;;;;;;;;40.60;35.80;;;;;20.26;39.28;99009.97;6263222;27;96861;-54
2022/09/03 05:12:59;;;;;;;;;35.40;33.20;;;;;20.36;38.76;99017.34;6255277;27;97603;-58
2022/09/03 05:16:05;;;;;;;;;48.60;41.60;;;;;20.36;39.26;99025.56;6263591;27;97092;-56
2022/09/03 05:19:09;;;;;;;;;52.00;44.33;;;;;20.41;38.97;99030.19;6259831;27;97824;-58
2022/09/03 05:22:20;;;;;;;;;33.40;31.80;;;;;20.46;40.16;99039.22;6252566;27;97401;-57
2022/09/03 05:25:23;;;;;;;;;44.25;37.75;;;;;20.53;39.22;99036.97;6261950;27;97394;-55
2022/09/03 05:28:28;;;;;;;;;48.60;41.40;;;;;20.60;39.29;99039.41;6261463;27;96724;-57
2022/09/03 05:31:32;;;;;;;;;43.25;37.75;;;;;20.65;38.86;99036.63;6247808;27;97396;-56
2022/09/03 05:34:36;;;;;;;;;39.00;35.00;;;;;20.65;39.26;99042.94;6262468;27;97526;-57
2022/09/03 05:37:40;;;;;;;;;37.50;33.50;;;;;20.70;39.40;99039.34;6262966;27;97201;-56
2022/09/03 05:40:44;;;;;;;;;51.67;44.00;;;;;20.72;39.21;99042.63;6261210;27;98178;-58
2022/09/03 05:43:50;;;;;;;;;42.40;37.40;;;;;20.69;39.42;99033.03;6262748;27;97470;-61
2022/09/03 05:46:54;;;;;;;;;43.60;38.00;;;;;20.73;39.57;99042.31;6252923;27;96875;-58
2022/09/03 05:49:57;;;;;;;;;33.80;31.80;;;;;20.78;39.94;99033.25;6245250;27;97343;-57
2022/09/03 05:53:02;;;;;;;;;58.67;48.83;;;;;20.75;39.31;99031.91;6235499;27;98032;-62
2022/09/03 05:56:09;;;;;;;;;57.00;47.80;;;;;20.70;39.45;99014.69;6235137;27;98409;-60
2022/09/03 05:59:13;;;;;;;;;42.00;37.00;;;;;20.78;40.09;99014.06;6236688;27;97016;-55
2022/09/03 06:02:18;;;;;;;;;45.40;39.40;;;;;20.86;40.01;99005.25;6236789;27;97288;-55
2022/09/03 06:05:22;;;;;;;;;55.40;46.40;;;;;20.94;40.08;99009.28;6235522;27;96712;-59
2022/09/03 06:08:27;;;;;;;;;38.80;34.80;;;;;21.05;39.92;99019.91;6237457;27;97257;-59
2022/09/03 06:11:32;;;;;;;;;49.00;42.00;;;;;21.11;39.67;99020.69;6241140;27;97150;-55
2022/09/03 06:14:35;;;;;;;;;49.00;41.75;;;;;21.26;40.56;99017.81;6251309;27;97352;-55
2022/09/03 06:17:39;;;;;;;;;44.20;38.40;;;;;21.47;40.41;99007.47;6240864;27;98022;-57
2022/09/03 06:20:42;;;;;;;;;42.00;36.80;;;;;21.71;39.67;99016.53;6241966;27;97417;-57
2022/09/03 06:23:51;;;;;;;;;39.00;34.75;;;;;21.90;40.10;99030.31;6235771;27;96620;-58
2022/09/03 06:26:55;;;;;;;;;35.40;33.00;;;;;22.10;39.64;99032.84;6236563;27;97534;-59
2022/09/03 06:29:59;;;;;;;;;47.00;40.00;;;;;22.21;38.83;99031.63;6247263;27;97339;-58
2022/09/03 06:33:03;;;;;;;;;60.67;50.00;;;;;22.29;38.54;99030.97;6235326;27;97399;-62
2022/09/03 06:36:08;;;;;;;;;49.67;42.50;;;;;22.40;38.90;99031.66;6236591;27;97565;-61
2022/09/03 06:39:13;;;;;;;;;56.00;46.40;;;;;22.47;38.69;99032.13;6236882;27;97086;-61
2022/09/03 06:42:17;;;;;;;;;48.60;41.60;;;;;22.55;38.92;99036.13;6237933;27;96799;-58
2022/09/03 06:45:20;;;;;;;;;39.00;35.20;;;;;22.57;39.24;99031.97;6234871;27;97323;-61
2022/09/03 06:48:24;;;;;;;;;36.17;33.67;;;;;22.65;39.28;99034.06;6236358;27;96556;-60
2022/09/03 06:51:29;;;;;;;;;43.80;38.40;;;;;22.77;39.01;99031.69;6237974;27;97150;-59
2022/09/03 06:54:34;;;;;;;;;44.25;38.25;;;;;22.90;39.29;99030.13;6244664;27;96899;-60
2022/09/03 06:57:38;;;;;;;;;58.33;48.33;;;;;22.99;38.79;99024.78;6233135;27;98028;-60
2022/09/03 07:00:41;;;;;;;;;36.40;33.40;;;;;23.14;39.09;99027.28;6234000;27;98395;-55
2022/09/03 07:03:47;;;;;;;;;47.33;40.83;;;;;23.30;38.53;99037.72;6237262;27;97366;-57
2022/09/03 07:06:51;;;;;;;;;34.50;31.75;;;;;23.37;38.72;99037.31;6253160;27;97449;-57
2022/09/03 07:09:55;;;;;;;;;47.00;40.60;;;;;23.46;39.16;99043.78;6256377;27;96898;-59
2022/09/03 07:12:58;;;;;;;;;47.60;41.00;;;;;23.46;38.75;99038.28;6259394;27;97071;-59
2022/09/03 07:16:03;;;;;;;;;49.40;42.00;;;;;23.59;39.10;99051.28;6253245;27;98155;-60
2022/09/03 07:19:08;;;;;;;;;50.00;42.50;;;;;23.67;38.36;99056.09;6253631;27;97128;-59
2022/09/03 07:22:11;;;;;;;;;34.00;32.00;;;;;23.82;38.78;99059.66;6253734;27;97183;-56
2022/09/03 07:25:16;;;;;;;;;45.40;39.00;;;;;23.98;38.37;99061.84;6261138;27;96648;-58
2022/09/03 07:28:19;;;;;;;;;36.00;33.00;;;;;24.15;38.02;99061.22;6261260;27;97432;-56
2022/09/03 07:31:25;;;;;;;;;48.75;42.00;;;;;24.22;37.24;99058.09;6251871;27;97411;-62
2022/09/03 07:34:29;;;;;;;;;31.40;29.40;;;;;24.29;37.59;99055.75;6261872;27;96575;-61
2022/09/03 07:37:32;;;;;;;;;48.20;41.20;;;;;24.41;37.63;99054.09;6252971;27;97414;-58
2022/09/03 07:40:38;;;;;;;;;31.20;30.40;;;;;24.55;37.54;99063.16;6246037;27;97446;-57
2022/09/03 07:43:45;;;;;;;;;50.00;42.40;;;;;24.71;37.31;99054.56;6236775;27;97479;-60
2022/09/03 07:46:49;;;;;;;;;66.00;55.20;;;;;24.82;36.90;99051.25;6242216;27;97356;-60
2022/09/03 07:49:53;;;;;;;;;49.00;42.00;;;;;24.82;36.67;99059.53;6245144;27;98034;-60
2022/09/03 07:52:58;;;;;;;;;35.75;33.00;;;;;24.87;37.07;99064.97;6239148;27;97500;-55
2022/09/03 07:56:05;;;;;;;;;45.40;39.40;;;;;24.90;36.75;99060.75;6239394;27;97483;-60
2022/09/03 07:59:10;;;;;;;;;24.00;24.00;;;;;24.91;36.61;99070.66;6239940;27;96947;-60
2022/09/03 08:02:14;;;;;;;;;30.00;28.20;;;;;24.91;36.75;99078.94;6246979;27;98218;-58
2022/09/03 08:05:20;;;;;;;;;52.25;44.25;;;;;24.80;36.65;99070.06;6256002;27;97584;-59
2022/09/03 08:08:23;;;;;;;;;40.50;36.25;;;;;24.76;36.84;99069.03;6243866;27;97375;-58
2022/09/03 08:11:30;;;;;;;;;39.80;35.80;;;;;24.64;36.95;99074.25;6237998;27;97485;-58
2022/09/03 08:14:33;;;;;;;;;40.25;35.75;;;;;24.57;37.24;99071.94;6248213;27;97133;-61
2022/09/03 08:17:36;;;;;;;;;39.75;35.25;;;;;24.67;37.54;99076.41;6243893;27;97997;-58
2022/09/03 08:20:40;;;;;;;;;39.80;35.40;;;;;24.76;37.26;99080.06;6245656;27;97040;-57
2022/09/03 08:23:45;;;;;;;;;61.40;50.80;;;;;24.77;36.87;99076.19;6239844;27;96762;-57
2022/09/03 08:26:50;;;;;;;;;37.00;33.60;;;;;24.73;36.68;99074.38;6248133;27;97725;-59
2022/09/03 08:29:56;;;;;;;;;41.80;36.60;;;;;24.70;36.97;99069.47;6239011;27;97435;-61
2022/09/03 08:33:03;;;;;;;;;31.80;31.00;;;;;24.75;37.15;99063.81;6239597;27;96624;-58
2022/09/03 08:36:09;;;;;;;;;41.75;37.00;;;;;24.85;36.96;99071.88;6243422;27;97135;-63
2022/09/03 08:39:13;;;;;;;;;21.60;21.20;;;;;24.86;36.71;99068.81;6241901;27;97400;-60
2022/09/03 08:42:28;;;;;;;;;31.40;30.40;;;;;24.91;36.61;99065.16;6241274;27;97528;-58
2022/09/03 08:45:37;;;;;;;;;44.20;38.40;;;;;24.94;36.82;99059.81;6238771;27;97224;-61
2022/09/03 08:48:40;;;;;;;;;28.00;28.00;;;;;25.02;36.79;99063.78;6238817;27;96994;-60
2022/09/03 08:51:47;;;;;;;;;41.33;36.33;;;;;25.05;36.57;99065.91;6240511;27;97145;-60
2022/09/03 08:54:55;;;;;;;;;43.00;38.00;;;;;25.09;36.53;99074.38;6242243;27;96749;-60
2022/09/03 08:58:06;;;;;;;;;31.40;30.20;;;;;24.96;36.58;99052.06;6243976;27;97253;-56
2022/09/03 09:01:17;;;;;;;;;36.50;33.50;;;;;25.11;36.36;99074.88;6237541;28;97406;-57
2022/09/03 09:04:37;;;;;;;;;28.75;28.50;;;;;25.15;36.42;99078.66;6237534;27;97292;-59
2022/09/03 09:07:48;;;;;;;;;32.00;30.00;;;;;25.14;36.39;99071.50;6249420;27;96923;-61
2022/09/03 09:11:02;;;;;;;;;41.80;36.80;;;;;25.20;36.37;99078.53;6240499;27;97455;-60
2022/09/03 09:14:15;;;;;;;;;29.00;29.00;;;;;25.18;36.06;99070.56;6265677;27;97138;-59
2022/09/03 09:17:37;;;;;;;;;45.00;38.67;;;;;25.19;36.12;99071.38;6238859;28;96709;-57
2022/09/03 09:20:47;;;;;;;;;23.40;23.40;;;;;25.07;36.26;99076.66;6238873;27;97423;-59
2022/09/03 09:23:52;;;;;;;;;53.25;45.25;;;;;25.08;36.57;99086.53;6239205;27;96666;-61
2022/09/03 09:27:00;;;;;;;;;15.80;15.80;;;;;25.07;36.26;99079.41;6241648;27;96595;-60
2022/09/03 09:30:09;;;;;;;;;44.80;38.80;;;;;25.06;36.21;99083.28;6238964;28;97438;-59
2022/09/03 09:33:13;;;;;;;;;30.80;29.60;;;;;25.01;36.28;99079.53;6248291;27;97429;-60
2022/09/03 09:36:18;;;;;;;;;49.00;42.20;;;;;24.86;36.74;99082.59;6239202;27;96929;-63
2022/09/03 09:39:22;;;;;;;;;35.20;32.00;;;;;24.80;36.86;99078.31;6236484;27;98409;-61
2022/09/03 09:42:28;;;;;;;;;36.80;33.60;;;;;24.76;37.01;99087.53;6237745;27;97520;-56
2022/09/03 09:45:34;;;;;;;;;23.80;23.80;;;;;24.81;37.07;99079.97;6237997;27;97045;-58
2022/09/03 09:48:45;;;;;;;;;48.20;41.20;;;;;24.90;37.00;99091.09;6238474;27;96825;-61
2022/09/03 09:51:49;;;;;;;;;27.40;26.00;;;;;25.01;36.78;99086.97;6238397;27;97498;-59
2022/09/03 09:54:54;;;;;;;;;36.00;33.25;;;;;25.22;36.68;99090.06;6236825;28;97121;-58
2022/09/03 09:58:07;;;;;;;;;45.60;39.00;;;;;25.39;35.89;99088.25;6237918;27;96799;-58
2022/09/03 10:01:24;;;;;;;;;45.80;39.20;;;;;25.54;35.88;99087.06;6241379;27;98225;-58
2022/09/03 10:04:31;;;;;;;;;34.20;32.40;;;;;25.79;36.23;99088.38;6239346;27;97434;-68
2022/09/03 10:07:35;;;;;;;;;34.75;32.50;;;;;25.99;35.74;99090.59;6257417;27;97535;-57
2022/09/03 10:10:48;;;;;;;;;35.60;33.00;;;;;26.22;35.30;99077.53;6263488;27;97436;-62
2022/09/03 10:13:54;;;;;;;;;26.00;26.00;;;;;26.51;34.95;99071.44;6263414;27;96553;-61
2022/09/03 10:17:09;;;;;;;;;48.40;41.40;;;;;26.83;34.78;99064.69;6263136;27;97426;-58
2022/09/03 10:20:29;;;;;;;;;26.20;25.60;;;;;26.99;33.50;99063.06;6248966;27;98462;-62
2022/09/03 10:23:50;;;;;;;;;33.80;32.40;;;;;27.09;33.72;99057.22;6259734;27;97255;-60
2022/09/03 10:26:54;;;;;;;;;46.40;39.40;;;;;27.22;33.88;99049.91;6263045;27;96460;-60
2022/09/03 10:29:59;;;;;;;;;16.75;16.00;;;;;27.43;33.94;99050.81;6260951;27;97398;-59
2022/09/03 10:33:11;;;;;;;;;50.00;42.50;;;;;27.72;33.04;99061.22;6251172;27;97567;-59
2022/09/03 10:36:19;;;;;;;;;31.40;30.40;;;;;27.93;32.03;99068.50;6253358;27;97318;-61
2022/09/03 10:39:29;;;;;;;;;50.40;43.40;;;;;27.84;32.11;99078.78;6236924;27;97094;-58
2022/09/03 10:42:55;;;;;;;;;34.00;32.00;;;;;27.65;32.25;99094.16;6241299;27;97504;-60
2022/09/03 10:46:04;;;;;;;;;35.50;32.50;;;;;27.52;32.96;99084.88;6234022;28;96943;-59
2022/09/03 10:49:25;;;;;;;;;26.50;26.50;;;;;27.43;32.95;99089.59;6235235;27;96824;-61
2022/09/03 10:52:36;;;;;;;;;31.75;30.75;;;;;27.43;33.33;99092.34;6235027;27;98450;-61
2022/09/03 10:55:48;;;;;;;;;38.75;35.00;;;;;27.38;32.90;99092.53;6236106;27;97499;-60
2022/09/03 10:59:03;;;;;;;;;44.00;38.20;;;;;27.39;33.01;99075.59;6236931;27;97494;-60
2022/09/03 11:02:25;;;;;;;;;32.50;31.50;;;;;27.50;33.07;99070.56;6237507;27;98055;-61
2022/09/03 11:05:37;;;;;;;;;46.80;40.20;;;;;27.40;32.28;99071.69;6239920;27;97762;-62
2022/09/03 11:08:48;;;;;;;;;49.40;42.00;;;;;27.20;32.97;99077.09;6262483;27;97409;-62
2022/09/03 11:11:55;;;;;;;;;37.80;34.20;;;;;26.96;33.10;99074.81;6249550;27;96481;-59
2022/09/03 11:15:04;;;;;;;;;34.60;32.60;;;;;26.98;33.88;99075.28;6262164;27;96582;-60
2022/09/03 11:18:17;;;;;;;;;41.40;36.40;;;;;27.08;33.91;99073.00;6260235;27;97387;-59
2022/09/03 11:21:25;;;;;;;;;37.20;33.80;;;;;27.22;33.65;99083.91;6258259;27;98537;-62
2022/09/03 11:24:33;;;;;;;;;21.00;20.75;;;;;27.26;33.32;99082.13;6244763;27;97415;-60
2022/09/03 11:27:55;;;;;;;;;52.33;44.33;;;;;27.39;32.84;99075.59;6244898;27;97601;-61
2022/09/03 11:31:13;;;;;;;;;33.25;30.75;;;;;27.45;33.28;99067.94;6241827;28;97461;-60
2022/09/03 11:34:29;;;;;;;;;34.40;32.00;;;;;27.71;33.01;99062.38;6240634;28;97396;-58
2022/09/03 11:37:52;;;;;;;;;44.00;38.00;;;;;27.98;32.48;99056.41;6240186;27;97398;-61
2022/09/03 11:41:02;;;;;;;;;28.50;28.00;;;;;28.07;32.27;99029.47;6247471;27;96905;-59
2022/09/03 11:44:18;;;;;;;;;30.40;29.20;;;;;28.32;31.58;99047.16;6241181;27;97338;-58
2022/09/03 11:47:27;;;;;;;;;44.20;38.40;;;;;28.25;31.70;99047.66;6239431;28;98118;-58
2022/09/03 11:50:32;;;;;;;;;30.20;29.80;;;;;28.31;31.89;99043.56;6250255;27;97197;-58
2022/09/03 11:53:37;;;;;;;;;51.50;43.75;;;;;28.40;31.37;99037.97;6242483;27;96423;-59
2022/09/03 11:56:42;;;;;;;;;26.25;25.50;;;;;28.30;31.66;99049.44;6240217;27;97781;-59
2022/09/03 11:59:45;;;;;;;;;39.00;35.40;;;;;28.13;30.98;99044.81;6256516;27;96604;-62
2022/09/03 12:02:54;;;;;;;;;34.40;32.40;;;;;28.03;32.17;99045.13;6240587;28;96805;-61
2022/09/03 12:06:19;;;;;;;;;27.00;26.80;;;;;28.01;31.90;99041.88;6249876;27;96961;-57
2022/09/03 12:09:55;;;;;;;;;42.25;37.25;;;;;27.89;31.83;99047.31;6265838;27;96713;-62
2022/09/03 12:13:25;;;;;;;;;19.75;19.75;;;;;27.81;32.11;99045.38;6261648;27;96856;-59
2022/09/03 12:16:43;;;;;;;;;34.80;31.80;;;;;27.78;32.34;99035.78;6235552;27;97338;-60
2022/09/03 12:19:53;;;;;;;;;31.60;30.00;;;;;27.75;32.51;99033.69;6265910;27;96588;-59
2022/09/03 12:22:56;;;;;;;;;34.80;32.60;;;;;27.98;31.79;99042.56;6257902;27;96839;-56
2022/09/03 12:26:05;;;;;;;;;38.20;34.60;;;;;28.01;31.51;99044.66;6264912;27;97383;-59
2022/09/03 12:29:22;;;;;;;;;29.40;29.40;;;;;28.00;32.36;99029.97;6265502;27;96832;-63
2022/09/03 12:32:36;;;;;;;;;31.80;30.60;;;;;28.04;31.94;99029.31;6262223;27;97081;-61
2022/09/03 12:35:40;;;;;;;;;48.20;41.60;;;;;27.91;32.04;99025.63;6263362;27;97457;-60
2022/09/03 12:39:08;;;;;;;;;37.80;33.00;;;;;27.89;32.11;99019.63;6263289;27;96941;-59
2022/09/03 12:42:23;;;;;;;;;21.40;21.20;;;;;28.00;32.01;99016.13;6264135;27;97476;-61
2022/09/03 12:45:27;;;;;;;;;28.50;28.25;;;;;28.05;32.04;99030.97;6266395;27;97546;-60
2022/09/03 12:49:03;;;;;;;;;35.40;32.40;;;;;27.97;31.96;99015.97;6264938;27;97534;-58
2022/09/03 12:52:29;;;;;;;;;29.60;29.60;;;;;28.17;32.70;99011.69;6262361;27;96908;-56
2022/09/03 12:55:37;;;;;;;;;28.25;27.50;;;;;28.20;32.01;99009.03;6255384;27;97380;-57
2022/09/03 12:58:49;;;;;;;;;31.50;30.75;;;;;28.31;31.36;99001.97;6247640;27;97366;-60
2022/09/03 13:01:56;;;;;;;;;31.60;30.20;;;;;28.27;31.43;98995.47;6264919;27;97108;-54
2022/09/03 13:05:01;;;;;;;;;39.40;35.40;;;;;28.30;31.32;99002.28;6250156;27;96979;-61
2022/09/03 13:08:08;;;;;;;;;27.40;27.40;;;;;28.35;31.93;99002.09;6264182;27;96973;-59
2022/09/03 13:11:16;;;;;;;;;33.25;32.00;;;;;28.47;31.46;98991.09;6265329;27;97401;-58
2022/09/03 13:14:22;;;;;;;;;26.00;26.00;;;;;28.48;31.25;99005.78;6264459;27;96898;-60
2022/09/03 13:17:55;;;;;;;;;39.00;34.80;;;;;28.21;31.34;99007.06;6258922;27;97245;-57
2022/09/03 13:21:15;;;;;;;;;17.25;17.00;;;;;28.06;30.93;99011.19;6272729;27;96841;-55
2022/09/03 13:24:32;;;;;;;;;32.25;30.50;;;;;27.95;31.56;98996.91;6264384;27;96976;-59
2022/09/03 13:27:43;;;;;;;;;32.00;30.80;;;;;27.83;31.49;99007.06;6264206;27;97478;-59
2022/09/03 13:30:56;;;;;;;;;25.80;25.80;;;;;27.69;32.06;99010.06;6264411;27;98610;-59
2022/09/03 13:34:05;;;;;;;;;24.20;24.20;;;;;27.72;32.39;99003.84;6263985;27;97738;-56
2022/09/03 13:37:22;;;;;;;;;35.00;32.50;;;;;27.68;32.26;99002.91;6262642;27;96475;-59
2022/09/03 13:40:34;;;;;;;;;25.80;25.40;;;;;27.71;32.19;99001.44;6263958;27;96597;-58
2022/09/03 13:43:43;;;;;;;;;44.67;38.67;;;;;27.59;32.21;99013.19;6276758;27;96943;-60
2022/09/03 13:46:53;;;;;;;;;21.75;21.25;;;;;27.55;32.11;99004.75;6262908;27;97398;-60
2022/09/03 13:53:37;;;;;;;;;50.75;43.25;;;;;27.47;32.80;99000.00;6258575;27;97719;-61
2022/09/03 13:56:56;;;;;;;;;35.00;32.00;;;;;27.44;33.20;98999.84;6258372;27;96727;-59
2022/09/03 14:00:05;;;;;;;;;42.20;37.00;;;;;27.44;33.18;98999.84;6249701;27;96552;-58
2022/09/03 14:03:17;;;;;;;;;43.80;37.80;;;;;27.42;32.93;98999.34;6260547;27;97851;-54
2022/09/03 14:06:38;;;;;;;;;36.00;32.40;;;;;27.39;33.69;99005.56;6261677;27;96844;-59
2022/09/03 14:09:51;;;;;;;;;33.50;32.00;;;;;27.30;33.45;99008.34;6244384;27;97403;-56
2022/09/03 14:13:06;;;;;;;;;39.40;35.40;;;;;27.19;33.39;99009.84;6260351;27;98183;-60
2022/09/03 14:16:19;;;;;;;;;45.00;39.00;;;;;27.08;33.40;99005.78;6262448;27;97123;-67
2022/09/03 14:19:36;;;;;;;;;30.60;28.80;;;;;27.00;33.35;99015.72;6253584;27;100716;-59
2022/09/03 14:22:50;;;;;;;;;37.75;34.50;;;;;26.88;33.46;98995.41;6257233;27;97529;-60
2022/09/03 14:25:54;;;;;;;;;39.20;35.00;;;;;26.90;33.88;99010.50;6261543;27;97150;-54
2022/09/03 14:28:59;;;;;;;;;47.80;40.40;;;;;26.80;33.70;99013.56;6261311;27;98070;-60
2022/09/03 14:32:18;;;;;;;;;26.80;26.20;;;;;26.68;34.12;98991.28;6260347;27;97393;-60